Kezdőlap
METAR-TAF:

METAR-TAF

Repülőterek :

Tarawa, Kiribati

földrajzi szélesség: 01-21N, földrajzi hosszúság: 172-55E, magasság: 2 m

Jelenlegi meteorológiai megfigyelések

A jelentés 59 perccel ezelõtt készült, 10:00 UTC
Keleti szél 9 kt
Hőmérséklet 29°C
Páratartalom 79%
Légköri nyomás 1010 hPa
Látótávolság 10 km, vagy több
Szórványos felhőzet 2000 lábon
Szakadozott felhőzet 30000 lábon

METAR: NGTA 181000Z 09009KT 9999 SCT020 BKN300 29/25 Q1010

Idő: 00:59 (10:59 UTC)

Előrejelzés

A jelentés 5 órával és 47 perccel ezelõtt készült, 05:12 UTC
Az előrejelzés 18-én 06 óra UTC és 19-én 06 óra UTC között érvényes
Kelet-északkeleti szél 10 kt
Látótávolság 10 km, vagy több
Kevés felhő 2000 lábon
Szórványos felhőzet 10000 lábon

TAF: NGTA 180512Z 1806/1906 07010KT 9999 FEW020 SCT100

Meteorológiai megfigyelések és előrejelzések több, mint 4000 repülőtéren (METAR és TAF jelentéseket).

A térképen piros és sárga pontok jelzik az elérhető meteorológiai állomásokat.

Mozgassa az egeret a pont fölött, hogy megjelenjen az állomás neve.

Azután kattintson az időjárási megfigyelések és előrejelzések megtekintéséhez.

A térkép megváltoztatása: kattintson a fekete keresztel jelölt zöld gombra ráközelítéshez, a vonallal jelölt zöld gombra távolításhoz, vagy a zöld nyilakra a szomszédos térképek eléréséhez.


METAR-TAF: